createdAt,value
2023-04-24T00:01:02.219Z,7.78
2023-04-24T00:03:31.241Z,7.93
2023-04-24T00:06:00.119Z,8.00
2023-04-24T00:08:28.357Z,7.88
2023-04-24T00:10:57.977Z,8.77
2023-04-24T00:13:26.242Z,7.80
2023-04-24T00:15:54.401Z,7.93
2023-04-24T00:18:22.522Z,7.93
2023-04-24T00:20:50.739Z,8.52
2023-04-24T00:23:18.845Z,8.13
2023-04-24T00:25:47.036Z,8.82
2023-04-24T00:28:16.538Z,7.82
2023-04-24T00:30:44.812Z,8.43
2023-04-24T00:33:13.092Z,8.43
2023-04-24T00:35:41.296Z,8.38
2023-04-24T00:38:09.399Z,8.90
2023-04-24T00:40:37.781Z,8.10
2023-04-24T00:43:07.421Z,8.23
2023-04-24T00:45:38.436Z,8.13
2023-04-24T00:48:06.664Z,8.82
2023-04-24T00:50:35.144Z,8.60
2023-04-24T00:53:03.328Z,8.80
2023-04-24T00:55:32.687Z,9.40
2023-04-24T00:58:01.591Z,9.18
2023-04-24T01:00:30.065Z,8.57
2023-04-24T01:03:01.667Z,9.45
2023-04-24T01:05:30.042Z,8.68
2023-04-24T01:07:58.872Z,8.45
2023-04-24T01:10:29.419Z,8.63
2023-04-24T01:12:58.176Z,8.65
2023-04-24T01:15:26.381Z,8.63
2023-04-24T01:17:54.675Z,8.93
2023-04-24T01:20:27.221Z,8.27
2023-04-24T01:22:58.526Z,8.70
2023-04-24T01:25:27.863Z,8.90
2023-04-24T01:27:59.152Z,9.10
2023-04-24T01:30:27.714Z,8.38
2023-04-24T01:32:56.148Z,9.68
2023-04-24T01:35:24.820Z,7.90
2023-04-24T01:37:52.915Z,8.32
2023-04-24T01:40:25.687Z,8.75
2023-04-24T01:42:54.506Z,8.50
2023-04-24T01:45:22.767Z,9.65
2023-04-24T01:47:52.341Z,9.10
2023-04-24T01:50:20.832Z,9.38
2023-04-24T01:52:49.146Z,8.57
2023-04-24T01:55:17.582Z,9.48
2023-04-24T01:57:48.528Z,9.20
2023-04-24T02:00:16.881Z,9.32
2023-04-24T02:02:48.409Z,8.80
2023-04-24T02:05:17.118Z,9.27
2023-04-24T02:07:45.284Z,8.50
2023-04-24T02:10:13.599Z,9.70
2023-04-24T02:12:44.641Z,9.68
2023-04-24T02:15:14.446Z,9.23
2023-04-24T02:17:42.653Z,9.70
2023-04-24T02:20:10.892Z,9.23
2023-04-24T02:22:40.394Z,9.18
2023-04-24T02:25:09.380Z,9.40
2023-04-24T02:27:37.519Z,9.40
2023-04-24T02:30:09.223Z,9.52
2023-04-24T02:32:40.051Z,9.80
2023-04-24T02:35:09.042Z,9.40
2023-04-24T02:37:37.548Z,9.20
2023-04-24T02:40:07.290Z,9.25
2023-04-24T02:42:35.669Z,9.93
2023-04-24T02:45:04.187Z,9.90
2023-04-24T02:47:32.268Z,9.35
2023-04-24T02:50:03.890Z,9.18
2023-04-24T02:52:32.128Z,9.52
2023-04-24T02:55:00.359Z,9.65
2023-04-24T02:57:28.506Z,9.40
2023-04-24T02:59:56.985Z,10.13
2023-04-24T03:02:25.222Z,10.48
2023-04-24T03:04:53.568Z,10.07
2023-04-24T03:07:25.173Z,10.07
2023-04-24T03:09:53.369Z,10.52
2023-04-24T03:12:21.523Z,10.88
2023-04-24T03:14:49.788Z,9.40
2023-04-24T03:17:17.948Z,10.60
2023-04-24T03:19:46.093Z,10.70
2023-04-24T03:22:15.082Z,10.35
2023-04-24T03:24:45.232Z,10.52
2023-04-24T03:27:16.398Z,11.10
2023-04-24T03:30:07.732Z,10.57
2023-04-24T03:32:45.250Z,10.93
2023-04-24T03:35:16.707Z,10.50
2023-04-24T03:37:44.919Z,10.55
2023-04-24T03:40:34.910Z,11.32
2023-04-24T03:43:05.177Z,10.57
2023-04-24T03:45:33.557Z,10.63
2023-04-24T03:48:01.923Z,10.18
2023-04-24T03:50:31.219Z,10.48
2023-04-24T03:53:00.460Z,10.48
2023-04-24T03:55:39.617Z,10.50
2023-04-24T03:58:07.838Z,10.23
2023-04-24T04:00:36.311Z,10.57
2023-04-24T04:03:24.725Z,10.27
2023-04-24T04:05:54.164Z,11.02
2023-04-24T04:08:22.618Z,11.15
2023-04-24T04:10:52.181Z,10.43
2023-04-24T04:13:20.399Z,9.52
2023-04-24T04:15:48.825Z,10.10
2023-04-24T04:18:17.415Z,9.45
2023-04-24T04:20:45.852Z,9.85
2023-04-24T04:23:16.427Z,10.57
2023-04-24T04:26:09.277Z,9.93
2023-04-24T04:28:54.770Z,10.07
2023-04-24T04:31:24.475Z,10.45
2023-04-24T04:33:52.790Z,9.75
2023-04-24T04:36:21.352Z,10.20
2023-04-24T04:38:55.744Z,10.10
2023-04-24T04:41:51.475Z,9.48
2023-04-24T04:44:22.334Z,9.60
2023-04-24T04:46:51.135Z,9.30
2023-04-24T04:49:32.060Z,9.13
2023-04-24T04:52:00.933Z,9.48
2023-04-24T04:54:30.012Z,9.65
2023-04-24T04:57:03.104Z,9.15
2023-04-24T04:59:32.748Z,10.30
2023-04-24T05:02:06.935Z,10.20
2023-04-24T05:04:35.623Z,10.63
2023-04-24T05:07:04.150Z,9.20
2023-04-24T05:09:35.589Z,9.50
2023-04-24T05:12:08.529Z,9.85
2023-04-24T05:14:44.220Z,9.48
2023-04-24T05:17:14.053Z,9.73
2023-04-24T05:19:43.249Z,10.15
2023-04-24T05:22:12.734Z,10.05
2023-04-24T05:24:49.298Z,9.70
2023-04-24T05:27:41.368Z,10.38
2023-04-24T05:30:16.394Z,10.15
2023-04-24T05:32:45.823Z,9.30
2023-04-24T05:35:15.135Z,9.48
2023-04-24T05:37:43.364Z,9.73
2023-04-24T05:40:13.080Z,9.80
2023-04-24T05:42:42.776Z,10.13
2023-04-24T05:45:15.933Z,9.70
2023-04-24T05:47:44.698Z,9.98
2023-04-24T05:50:22.042Z,10.68
2023-04-24T05:52:50.618Z,10.43
2023-04-24T05:55:27.461Z,10.13
2023-04-24T05:57:57.609Z,10.85
2023-04-24T06:00:28.045Z,10.30
2023-04-24T06:03:05.142Z,10.50
2023-04-24T06:05:34.035Z,10.52
2023-04-24T06:08:04.546Z,10.27
2023-04-24T06:10:37.553Z,10.07
2023-04-24T06:13:08.835Z,9.38
2023-04-24T06:15:40.327Z,9.95
2023-04-24T06:18:12.098Z,10.05
2023-04-24T06:20:41.801Z,10.07
2023-04-24T06:23:11.382Z,9.75
2023-04-24T06:25:40.184Z,9.98
2023-04-24T06:28:09.721Z,9.38
2023-04-24T06:30:38.001Z,9.27
2023-04-24T06:33:19.579Z,9.57
2023-04-24T06:35:49.483Z,9.50
2023-04-24T06:38:18.017Z,9.70
2023-04-24T06:40:46.299Z,9.68
2023-04-24T06:43:16.050Z,10.05
2023-04-24T06:45:45.235Z,10.20
2023-04-24T06:48:13.481Z,9.57
2023-04-24T06:50:42.006Z,9.98
2023-04-24T06:53:12.156Z,10.18
2023-04-24T06:55:40.474Z,9.98
2023-04-24T06:58:09.089Z,9.88
2023-04-24T07:00:38.862Z,9.38
2023-04-24T07:03:07.405Z,9.25
2023-04-24T07:05:36.571Z,9.80
2023-04-24T07:08:05.698Z,9.93
2023-04-24T07:10:36.721Z,9.35
2023-04-24T07:13:05.053Z,9.05
2023-04-24T07:15:33.465Z,9.95
2023-04-24T07:18:05.412Z,9.10
2023-04-24T07:20:34.604Z,9.30
2023-04-24T07:23:02.971Z,9.35
2023-04-24T07:25:32.434Z,9.35
2023-04-24T07:28:00.633Z,9.10
2023-04-24T07:30:29.941Z,9.30
2023-04-24T07:32:58.307Z,8.63
2023-04-24T07:35:29.001Z,9.15
2023-04-24T07:37:57.397Z,8.98
2023-04-24T07:40:25.616Z,9.00
2023-04-24T07:42:54.025Z,8.50
2023-04-24T07:45:22.178Z,8.40
2023-04-24T07:47:50.530Z,8.63
2023-04-24T07:50:19.198Z,8.20
2023-04-24T07:52:48.731Z,8.50
2023-04-24T07:55:16.928Z,8.40
2023-04-24T07:57:45.579Z,8.27
2023-04-24T08:00:14.568Z,7.85
2023-04-24T08:02:43.029Z,8.30
2023-04-24T08:05:12.224Z,8.32
2023-04-24T08:07:40.664Z,8.75
2023-04-24T08:10:12.923Z,8.52
2023-04-24T08:12:41.334Z,8.63
2023-04-24T08:15:10.528Z,8.27
2023-04-24T08:17:38.772Z,8.52
2023-04-24T08:20:11.310Z,8.30
2023-04-24T08:22:39.669Z,8.35
2023-04-24T08:25:08.669Z,7.57
2023-04-24T08:27:39.982Z,7.80
2023-04-24T08:30:09.274Z,8.20
2023-04-24T08:32:38.191Z,7.57
2023-04-24T08:35:07.111Z,7.40
2023-04-24T08:37:35.407Z,7.43
2023-04-24T08:40:04.123Z,7.53
2023-04-24T08:42:34.337Z,7.65
2023-04-24T08:45:03.880Z,7.53
2023-04-24T08:47:33.256Z,7.22
2023-04-24T08:50:03.821Z,7.53
2023-04-24T08:52:32.710Z,6.97
2023-04-24T08:55:02.368Z,7.60
2023-04-24T08:57:32.054Z,7.18
2023-04-24T09:00:01.094Z,7.85
2023-04-24T09:02:31.988Z,7.82
2023-04-24T09:05:00.442Z,7.22
2023-04-24T09:07:32.414Z,7.32
2023-04-24T09:10:02.287Z,7.32
2023-04-24T09:12:30.354Z,7.45
2023-04-24T09:14:59.299Z,6.85
2023-04-24T09:17:29.634Z,7.10
2023-04-24T09:19:59.425Z,7.13
2023-04-24T09:22:31.265Z,6.30
2023-04-24T09:25:05.366Z,6.03
2023-04-24T09:27:33.954Z,7.43
2023-04-24T09:30:03.306Z,5.85
2023-04-24T09:32:32.849Z,5.65
2023-04-24T09:35:13.584Z,6.15
2023-04-24T09:37:43.687Z,6.50
2023-04-24T09:40:17.725Z,6.70
2023-04-24T09:42:47.634Z,7.05
2023-04-24T09:45:16.257Z,6.75
2023-04-24T09:47:45.249Z,6.68
2023-04-24T09:50:20.694Z,6.82
2023-04-24T09:53:00.154Z,6.65
2023-04-24T09:55:28.692Z,6.47
2023-04-24T09:57:58.696Z,7.10
2023-04-24T10:00:29.750Z,7.40
2023-04-24T10:03:02.635Z,6.90
2023-04-24T10:05:33.714Z,7.18
2023-04-24T10:08:06.661Z,6.95
2023-04-24T10:10:36.091Z,7.10
2023-04-24T10:13:05.684Z,6.93
2023-04-24T10:15:34.398Z,6.85
2023-04-24T10:18:02.752Z,6.45
2023-04-24T10:20:32.858Z,6.63
2023-04-24T10:23:02.016Z,6.93
2023-04-24T10:25:32.059Z,6.43
2023-04-24T10:28:01.685Z,6.18
2023-04-24T10:30:33.592Z,6.50
2023-04-24T10:33:02.107Z,6.03
2023-04-24T10:35:35.281Z,6.55
2023-04-24T10:38:07.690Z,6.75
2023-04-24T10:40:37.173Z,7.07
2023-04-24T10:43:08.943Z,6.75
2023-04-24T10:45:39.626Z,6.80
2023-04-24T10:48:12.247Z,6.70
2023-04-24T10:50:50.305Z,6.55
2023-04-24T10:53:20.419Z,6.60
2023-04-24T10:55:50.139Z,6.15
2023-04-24T10:58:18.883Z,6.05
2023-04-24T11:00:58.605Z,5.72
2023-04-24T11:03:30.287Z,6.28
2023-04-24T11:06:02.100Z,5.82
2023-04-24T11:08:39.041Z,5.78
2023-04-24T11:11:12.090Z,5.80
2023-04-24T11:14:09.067Z,5.10
2023-04-24T11:16:41.045Z,6.00
2023-04-24T11:19:11.175Z,5.65
2023-04-24T11:21:45.609Z,5.35
2023-04-24T11:24:34.372Z,5.85
2023-04-24T11:27:08.918Z,4.80
2023-04-24T11:29:48.699Z,5.63
2023-04-24T11:32:19.787Z,5.40
2023-04-24T11:34:52.035Z,8.05
2023-04-24T11:37:21.665Z,5.80
2023-04-24T11:39:53.011Z,4.95
2023-04-24T11:42:23.404Z,5.30
2023-04-24T11:44:53.733Z,5.15
2023-04-24T11:47:21.981Z,5.53
2023-04-24T11:49:53.331Z,5.45
2023-04-24T11:52:23.594Z,5.30
2023-04-24T11:54:52.304Z,5.97
2023-04-24T11:57:23.175Z,5.88
2023-04-24T11:59:51.725Z,5.72
2023-04-24T12:02:27.066Z,5.53
2023-04-24T12:04:57.074Z,5.78
2023-04-24T12:07:26.956Z,6.28
2023-04-24T12:10:00.898Z,5.70
2023-04-24T12:12:30.246Z,5.93
2023-04-24T12:15:00.198Z,5.90
2023-04-24T12:17:30.055Z,6.13
2023-04-24T12:20:03.450Z,5.53
2023-04-24T12:22:46.778Z,5.65
2023-04-24T12:25:15.892Z,5.90
2023-04-24T12:27:45.146Z,6.25
2023-04-24T12:30:15.808Z,5.88
2023-04-24T12:32:45.185Z,5.30
2023-04-24T12:35:13.732Z,5.18
2023-04-24T12:37:47.272Z,5.28
2023-04-24T12:40:16.844Z,4.25
2023-04-24T12:42:46.293Z,4.55
2023-04-24T12:45:15.177Z,4.30
2023-04-24T12:47:45.043Z,4.20
2023-04-24T12:50:15.597Z,4.03
2023-04-24T12:52:45.584Z,3.97
2023-04-24T12:55:14.196Z,4.40
2023-04-24T12:57:42.788Z,3.85
2023-04-24T13:00:11.745Z,4.18
2023-04-24T13:02:40.395Z,3.50
2023-04-24T13:05:09.848Z,4.25
2023-04-24T13:07:37.973Z,4.10
2023-04-24T13:10:09.090Z,4.13
2023-04-24T13:12:37.796Z,4.03
2023-04-24T13:15:06.859Z,4.15
2023-04-24T13:17:35.253Z,3.75
2023-04-24T13:20:03.826Z,3.63
2023-04-24T13:22:32.139Z,3.92
2023-04-24T13:25:00.677Z,3.60
2023-04-24T13:27:30.323Z,3.55
2023-04-24T13:29:58.421Z,3.50
2023-04-24T13:32:27.809Z,3.92
2023-04-24T13:34:56.008Z,3.90
2023-04-24T13:37:24.594Z,3.40
2023-04-24T13:39:52.880Z,3.65
2023-04-24T13:42:21.850Z,3.63
2023-04-24T13:44:52.156Z,3.78
2023-04-24T13:47:20.576Z,3.60
2023-04-24T13:49:49.156Z,3.47
2023-04-24T13:52:17.829Z,3.17
2023-04-24T13:54:46.131Z,3.15
2023-04-24T13:57:16.123Z,3.58
2023-04-24T13:59:44.314Z,3.50
2023-04-24T14:02:13.958Z,3.38
2023-04-24T14:04:42.351Z,3.67
2023-04-24T14:07:10.809Z,3.85
2023-04-24T14:09:38.955Z,3.90
2023-04-24T14:12:08.340Z,3.33
2023-04-24T14:14:36.500Z,3.80
2023-04-24T14:17:04.892Z,3.75
2023-04-24T14:19:34.508Z,3.85
2023-04-24T14:22:03.213Z,3.60
2023-04-24T14:24:31.678Z,3.70
2023-04-24T14:27:00.137Z,3.40
2023-04-24T14:29:28.260Z,3.83
2023-04-24T14:31:56.621Z,3.63
2023-04-24T14:34:24.877Z,3.65
2023-04-24T14:36:55.276Z,3.67
2023-04-24T14:39:23.615Z,3.70
2023-04-24T14:41:51.837Z,3.60
2023-04-24T14:44:19.889Z,3.97
2023-04-24T14:46:48.276Z,3.65
2023-04-24T14:49:16.765Z,3.85
2023-04-24T14:51:45.055Z,3.67
2023-04-24T14:54:15.871Z,3.78
2023-04-24T14:56:45.467Z,3.80
2023-04-24T14:59:14.169Z,3.50
2023-04-24T15:01:42.425Z,3.88
2023-04-24T15:04:11.110Z,4.03
2023-04-24T15:06:39.695Z,4.13
2023-04-24T15:09:07.966Z,3.80
2023-04-24T15:11:38.027Z,4.28
2023-04-24T15:14:06.260Z,4.40
2023-04-24T15:16:34.577Z,4.22
2023-04-24T15:19:03.276Z,4.18
2023-04-24T15:21:32.392Z,4.00
2023-04-24T15:24:00.575Z,4.20
2023-04-24T15:26:28.914Z,3.70
2023-04-24T15:28:58.502Z,3.78
2023-04-24T15:31:26.869Z,4.32
2023-04-24T15:33:55.124Z,3.83
2023-04-24T15:36:23.529Z,3.33
2023-04-24T15:38:52.162Z,4.13
2023-04-24T15:41:20.439Z,4.47
2023-04-24T15:43:48.890Z,4.22
2023-04-24T15:46:18.827Z,4.22
2023-04-24T15:48:47.025Z,4.45
2023-04-24T15:51:15.443Z,4.00
2023-04-24T15:53:43.644Z,4.43
2023-04-24T15:56:12.240Z,4.13
2023-04-24T15:58:40.612Z,4.38
2023-04-24T16:01:08.944Z,4.68
2023-04-24T16:03:38.758Z,4.15
2023-04-24T16:06:07.444Z,4.20
2023-04-24T16:08:36.306Z,3.92
2023-04-24T16:11:04.580Z,4.05
2023-04-24T16:13:34.364Z,3.85
2023-04-24T16:16:02.914Z,4.38
2023-04-24T16:18:31.287Z,3.95
2023-04-24T16:21:00.809Z,4.00
2023-04-24T16:23:28.978Z,3.85
2023-04-24T16:25:57.401Z,3.63
2023-04-24T16:28:27.280Z,4.22
2023-04-24T16:30:55.573Z,4.45
2023-04-24T16:33:26.328Z,4.32
2023-04-24T16:35:54.726Z,4.68
2023-04-24T16:38:25.055Z,4.05
2023-04-24T16:40:53.426Z,4.45
2023-04-24T16:43:21.523Z,4.53
2023-04-24T16:45:50.021Z,4.40
2023-04-24T16:48:18.150Z,4.28
2023-04-24T16:50:47.505Z,4.45
2023-04-24T16:53:15.623Z,4.63
2023-04-24T16:55:46.422Z,4.68
2023-04-24T16:58:14.640Z,4.28
2023-04-24T17:00:42.909Z,4.50
2023-04-24T17:03:12.817Z,4.82
2023-04-24T17:05:41.369Z,4.82
2023-04-24T17:08:09.587Z,4.80
2023-04-24T17:10:37.851Z,4.93
2023-04-24T17:13:07.488Z,4.53
2023-04-24T17:15:36.432Z,4.80
2023-04-24T17:18:05.926Z,5.93
2023-04-24T17:20:34.203Z,5.30
2023-04-24T17:23:02.407Z,4.75
2023-04-24T17:25:30.891Z,4.93
2023-04-24T17:27:59.264Z,5.70
2023-04-24T17:30:28.744Z,5.20
2023-04-24T17:32:57.384Z,5.28
2023-04-24T17:35:25.638Z,5.30
2023-04-24T17:37:53.982Z,5.60
2023-04-24T17:40:22.178Z,5.13
2023-04-24T17:42:50.445Z,5.90
2023-04-24T17:45:18.541Z,5.70
2023-04-24T17:47:48.371Z,5.43
2023-04-24T17:50:16.723Z,6.22
2023-04-24T17:52:44.976Z,5.68
2023-04-24T17:55:13.785Z,5.80
2023-04-24T17:57:42.204Z,5.72
2023-04-24T18:00:11.680Z,5.38
2023-04-24T18:02:40.181Z,5.70
2023-04-24T18:05:10.119Z,5.45
2023-04-24T18:07:39.292Z,6.35
2023-04-24T18:10:08.764Z,5.97
2023-04-24T18:12:37.108Z,5.38
2023-04-24T18:15:13.591Z,5.68
2023-04-24T18:17:43.342Z,5.43
2023-04-24T18:20:14.238Z,5.55
2023-04-24T18:22:43.477Z,5.45
2023-04-24T18:25:12.543Z,5.97
2023-04-24T18:27:41.999Z,5.47
2023-04-24T18:30:14.459Z,5.57
2023-04-24T18:32:43.237Z,5.35
2023-04-24T18:35:13.072Z,5.40
2023-04-24T18:37:41.636Z,6.10
2023-04-24T18:40:11.374Z,5.60
2023-04-24T18:42:39.991Z,5.13
2023-04-24T18:45:08.921Z,5.38
2023-04-24T18:47:37.226Z,5.22
2023-04-24T18:50:05.625Z,5.55
2023-04-24T18:52:35.386Z,6.18
2023-04-24T18:55:05.763Z,5.53
2023-04-24T18:57:34.018Z,5.90
2023-04-24T19:00:02.338Z,6.00
2023-04-24T19:02:31.067Z,5.82
2023-04-24T19:04:59.578Z,5.53
2023-04-24T19:07:27.803Z,6.22
2023-04-24T19:09:57.250Z,5.85
2023-04-24T19:12:25.674Z,6.20
2023-04-24T19:14:56.100Z,6.20
2023-04-24T19:17:25.534Z,5.72
2023-04-24T19:19:53.828Z,7.97
2023-04-24T19:22:22.091Z,5.85
2023-04-24T19:24:50.497Z,36.33
2023-04-24T19:27:20.113Z,18.13
2023-04-24T19:29:48.366Z,20.08
2023-04-24T19:32:16.779Z,5.78
2023-04-24T19:34:44.898Z,6.10
2023-04-24T19:37:13.372Z,5.93
2023-04-24T19:39:41.620Z,6.70
2023-04-24T19:42:09.941Z,7.57
2023-04-24T19:44:39.372Z,8.80
2023-04-24T19:47:07.939Z,7.95
2023-04-24T19:49:36.112Z,6.93
2023-04-24T19:52:04.329Z,8.68
2023-04-24T19:54:32.500Z,6.82
2023-04-24T19:57:00.762Z,8.93
2023-04-24T19:59:28.910Z,8.50
2023-04-24T20:01:59.306Z,7.75
2023-04-24T20:04:27.872Z,7.20
2023-04-24T20:06:56.188Z,7.60
2023-04-24T20:09:24.395Z,6.30
2023-04-24T20:11:53.697Z,7.53
2023-04-24T20:14:22.011Z,7.50
2023-04-24T20:16:51.305Z,7.07
2023-04-24T20:22:02.092Z,7.10
2023-04-24T20:24:30.482Z,7.25
2023-04-24T20:26:59.464Z,7.32
2023-04-24T20:29:27.766Z,7.28
2023-04-24T20:31:56.054Z,7.75
2023-04-24T20:34:24.463Z,8.18
2023-04-24T20:36:52.633Z,7.95
2023-04-24T20:39:22.301Z,7.72
2023-04-24T20:41:50.652Z,7.80
2023-04-24T20:44:18.929Z,7.60
2023-04-24T20:46:47.078Z,7.07
2023-04-24T20:49:15.269Z,7.95
2023-04-24T20:51:44.037Z,8.02
2023-04-24T20:54:12.396Z,7.93
2023-04-24T20:56:41.973Z,8.55
2023-04-24T20:59:10.110Z,8.52
2023-04-24T21:01:38.430Z,8.45
2023-04-24T21:04:06.848Z,9.05
2023-04-24T21:06:35.079Z,8.38
2023-04-24T21:09:04.375Z,8.35
2023-04-24T21:11:32.466Z,8.82
2023-04-24T21:14:04.867Z,8.95
2023-04-24T21:16:33.395Z,8.57
2023-04-24T21:19:03.752Z,8.23
2023-04-24T21:21:34.978Z,9.65
2023-04-24T21:24:04.434Z,8.30
2023-04-24T21:26:33.050Z,8.80
2023-04-24T21:29:03.680Z,9.48
2023-04-24T21:31:33.258Z,9.38
2023-04-24T21:34:01.458Z,8.90
2023-04-24T21:36:31.664Z,8.88
2023-04-24T21:39:01.050Z,9.25
2023-04-24T21:41:29.174Z,9.65
2023-04-24T21:43:57.509Z,9.05
2023-04-24T21:46:26.961Z,9.85
2023-04-24T21:48:56.639Z,10.52
2023-04-24T21:51:25.165Z,9.10
2023-04-24T21:53:53.372Z,8.23
2023-04-24T21:56:21.627Z,9.38
2023-04-24T21:58:49.952Z,8.98
2023-04-24T22:01:18.109Z,9.88
2023-04-24T22:03:46.476Z,10.05
2023-04-24T22:06:16.239Z,9.63
2023-04-24T22:08:47.694Z,9.30
2023-04-24T22:11:25.804Z,10.00
2023-04-24T22:13:55.173Z,9.98
2023-04-24T22:16:24.935Z,9.45
2023-04-24T22:18:55.359Z,10.05
2023-04-24T22:21:25.077Z,10.50
2023-04-24T22:23:53.302Z,10.50
2023-04-24T22:26:21.407Z,10.45
2023-04-24T22:28:49.686Z,10.90
2023-04-24T22:31:17.982Z,10.93
2023-04-24T22:33:47.885Z,10.40
2023-04-24T22:36:16.377Z,11.00
2023-04-24T22:38:45.946Z,11.00
2023-04-24T22:41:14.288Z,11.40
2023-04-24T22:43:42.706Z,10.98
2023-04-24T22:46:10.900Z,10.90
2023-04-24T22:48:39.474Z,11.45
2023-04-24T22:51:07.757Z,11.23
2023-04-24T22:53:36.294Z,11.25
2023-04-24T22:56:06.591Z,11.45
2023-04-24T22:58:35.118Z,11.98
2023-04-24T23:01:04.228Z,11.65
2023-04-24T23:03:35.783Z,12.18
2023-04-24T23:06:04.323Z,12.38
2023-04-24T23:08:32.505Z,12.10
2023-04-24T23:11:01.399Z,11.82
2023-04-24T23:13:30.880Z,12.73
2023-04-24T23:15:59.377Z,12.27
2023-04-24T23:18:27.828Z,12.23
2023-04-24T23:20:56.443Z,13.40
2023-04-24T23:23:24.657Z,12.55
2023-04-24T23:25:53.266Z,12.98
2023-04-24T23:28:21.461Z,13.07
2023-04-24T23:30:51.190Z,13.18
2023-04-24T23:33:19.232Z,13.27
2023-04-24T23:35:47.452Z,12.32
2023-04-24T23:40:44.583Z,12.93
2023-04-24T23:43:12.944Z,13.38
2023-04-24T23:45:41.171Z,12.60
2023-04-24T23:48:10.678Z,14.02
2023-04-24T23:50:38.958Z,14.13
2023-04-24T23:53:07.082Z,13.63
2023-04-24T23:55:35.895Z,13.07
2023-04-24T23:58:04.017Z,14.15
